Time;durP1;ratioP1;P1;durP2;ratioP2;P2;SDS_P1;SDS_P2;PMS_P1;PMS_P2;Temp;Humidity;BMP_temperature;BMP_pressure;BME280_temperature;BME280_humidity;BME280_pressure;Samples;Min_cycle;Max_cycle;Signal;HPM_P1;HPM_P2
2021/12/07 00:01:43;;;;;;;7.03;2.20;;;21.10;99.90;;;;;;5058388;28;20197;-57
2021/12/07 00:04:10;;;;;;;7.93;2.72;;;21.20;99.90;;;;;;5055619;28;20173;-58
2021/12/07 00:06:38;;;;;;;5.82;1.70;;;21.20;99.90;;;;;;5069086;28;20291;-58
2021/12/07 00:09:07;;;;;;;5.65;1.75;;;21.30;99.90;;;;;;5066474;28;20205;-58
2021/12/07 00:11:35;;;;;;;4.53;1.90;;;21.40;99.90;;;;;;5067769;28;20178;-56
2021/12/07 00:14:11;;;;;;;6.72;1.80;;;21.70;99.90;;;;;;5061490;28;20267;-58
2021/12/07 00:16:40;;;;;;;3.97;1.73;;;21.70;99.90;;;;;;5067719;28;20195;-59
2021/12/07 00:19:07;;;;;;;9.98;1.80;;;22.00;99.90;;;;;;5057236;28;20171;-58
2021/12/07 00:21:35;;;;;;;4.72;1.85;;;22.20;99.90;;;;;;5056958;28;20236;-58
2021/12/07 00:24:03;;;;;;;6.32;1.75;;;22.20;99.90;;;;;;5053284;28;20554;-57
2021/12/07 00:26:33;;;;;;;6.82;1.80;;;22.30;99.90;;;;;;5054380;28;20685;-58
2021/12/07 00:29:03;;;;;;;5.22;1.50;;;22.40;99.90;;;;;;5064904;28;20235;-58
2021/12/07 00:31:39;;;;;;;7.82;2.03;;;22.50;99.90;;;;;;5067702;28;20264;-57
2021/12/07 00:36:44;;;;;;;7.03;2.38;;;22.40;99.90;;;;;;5068938;28;20169;-57
2021/12/07 00:39:16;;;;;;;4.82;1.60;;;22.70;99.90;;;;;;5067600;28;20547;-57
2021/12/07 00:41:43;;;;;;;6.03;1.58;;;22.80;99.90;;;;;;5068084;28;20268;-58
2021/12/07 00:44:11;;;;;;;7.47;1.70;;;23.00;99.90;;;;;;5068824;28;20599;-58
2021/12/07 00:46:38;;;;;;;5.57;1.75;;;23.10;99.90;;;;;;5066934;28;20204;-58
2021/12/07 00:49:05;;;;;;;2.35;1.30;;;23.10;99.90;;;;;;5067584;28;20657;-57
2021/12/07 00:51:33;;;;;;;1.70;1.05;;;23.40;99.90;;;;;;5067932;28;21028;-58
2021/12/07 00:54:01;;;;;;;2.50;1.25;;;23.40;99.90;;;;;;5068794;28;20223;-58
2021/12/07 00:56:28;;;;;;;5.97;1.20;;;23.50;99.90;;;;;;5067760;28;20731;-57
2021/12/07 00:58:55;;;;;;;2.90;1.05;;;23.60;99.90;;;;;;5068238;28;20525;-57
2021/12/07 01:01:22;;;;;;;5.07;1.60;;;23.80;99.90;;;;;;5067506;28;20577;-58
2021/12/07 01:03:51;;;;;;;2.53;1.30;;;23.90;99.90;;;;;;5067306;28;20634;-57
2021/12/07 01:06:26;;;;;;;3.70;1.10;;;24.10;99.90;;;;;;5066817;28;20221;-57
2021/12/07 01:09:09;;;;;;;6.38;3.08;;;24.20;99.90;;;;;;5060116;28;20182;-58
2021/12/07 01:25:33;;;;;;;5.40;1.70;;;24.70;99.90;;;;;;5051831;28;20728;-57
2021/12/07 01:28:07;;;;;;;6.88;1.40;;;24.70;99.90;;;;;;5059524;28;20185;-58
2021/12/07 01:30:49;;;;;;;9.38;1.65;;;24.80;99.90;;;;;;5060712;28;20197;-58
2021/12/07 01:41:12;;;;;;;7.50;1.70;;;25.10;99.90;;;;;;5063127;28;20204;-57
2021/12/07 01:44:02;;;;;;;4.32;1.42;;;25.20;99.90;;;;;;5052587;28;20643;-58
2021/12/07 01:46:56;;;;;;;9.65;2.25;;;25.20;99.90;;;;;;5065462;28;20202;-58
2021/12/07 01:49:54;;;;;;;7.65;1.52;;;25.20;99.90;;;;;;5068445;28;20185;-57
2021/12/07 02:00:22;;;;;;;5.53;2.10;;;25.60;99.90;;;;;;5067776;28;20221;-58
2021/12/07 02:02:50;;;;;;;10.80;1.73;;;25.70;99.90;;;;;;5068003;28;20177;-57
2021/12/07 02:05:17;;;;;;;6.28;1.70;;;25.70;99.90;;;;;;5067586;28;20178;-57
2021/12/07 02:07:44;;;;;;;8.52;1.73;;;25.70;99.90;;;;;;5067678;28;20185;-58
2021/12/07 02:10:17;;;;;;;11.13;2.00;;;25.80;99.90;;;;;;5067798;28;20181;-58
2021/12/07 02:12:47;;;;;;;5.25;1.88;;;25.90;99.90;;;;;;5067384;28;20260;-58
2021/12/07 02:15:19;;;;;;;6.22;1.65;;;25.90;99.90;;;;;;5067171;28;20232;-58
2021/12/07 02:17:47;;;;;;;8.90;1.98;;;25.90;99.90;;;;;;5067450;28;20189;-58
2021/12/07 02:20:15;;;;;;;7.07;2.13;;;26.00;99.90;;;;;;5067306;28;20562;-59
2021/12/07 02:22:43;;;;;;;6.40;1.83;;;26.00;99.90;;;;;;5066276;28;20180;-57
2021/12/07 02:25:12;;;;;;;8.23;1.80;;;26.20;99.90;;;;;;5064754;28;20181;-58
2021/12/07 02:27:39;;;;;;;9.10;2.15;;;26.00;99.90;;;;;;5065743;28;20213;-58
2021/12/07 02:30:11;;;;;;;7.13;1.80;;;25.90;99.90;;;;;;5066539;28;20186;-58
2021/12/07 02:32:39;;;;;;;3.30;1.48;;;25.90;99.90;;;;;;5066559;28;20639;-58
2021/12/07 02:35:10;;;;;;;11.10;2.50;;;25.90;99.90;;;;;;5066441;28;20201;-58
2021/12/07 02:37:37;;;;;;;8.50;1.90;;;25.90;99.90;;;;;;5065168;28;20716;-58
2021/12/07 02:40:06;;;;;;;8.85;2.00;;;26.00;99.90;;;;;;5066238;28;20292;-57
2021/12/07 02:42:33;;;;;;;5.68;1.60;;;25.90;99.90;;;;;;5066466;28;20331;-59
2021/12/07 02:45:02;;;;;;;4.70;1.83;;;25.80;99.90;;;;;;5064909;28;20181;-58
2021/12/07 02:47:29;;;;;;;5.55;2.30;;;25.80;99.90;;;;;;5066658;28;20522;-58
2021/12/07 02:49:55;;;;;;;5.95;1.67;;;25.80;99.90;;;;;;5066035;28;20634;-58
2021/12/07 02:52:22;;;;;;;11.52;2.00;;;25.80;99.90;;;;;;5066583;28;20265;-58
2021/12/07 02:54:50;;;;;;;6.28;1.77;;;25.70;99.90;;;;;;5048346;28;20319;-58
2021/12/07 02:57:20;;;;;;;5.38;1.60;;;25.70;99.90;;;;;;5065870;28;20181;-58
2021/12/07 02:59:55;;;;;;;7.15;1.77;;;25.70;99.90;;;;;;5065688;28;20579;-58
2021/12/07 03:02:23;;;;;;;8.98;1.88;;;25.60;99.90;;;;;;5066292;28;20649;-58
2021/12/07 03:05:01;;;;;;;9.20;2.10;;;25.70;99.90;;;;;;5066055;28;20428;-57
2021/12/07 03:26:50;;;;;;;6.85;2.33;;;25.00;99.90;;;;;;5063661;28;20196;-57
2021/12/07 03:29:17;;;;;;;7.82;2.20;;;24.80;99.90;;;;;;5047395;28;20189;-57
2021/12/07 03:31:44;;;;;;;8.73;3.13;;;24.70;99.90;;;;;;5052952;28;20534;-56
2021/12/07 03:34:11;;;;;;;6.82;1.90;;;24.70;99.90;;;;;;5058677;28;20171;-57
2021/12/07 03:36:38;;;;;;;5.25;1.80;;;24.60;99.90;;;;;;5053037;28;20177;-58
2021/12/07 03:39:07;;;;;;;5.82;1.67;;;24.70;99.90;;;;;;5064342;28;20169;-58
2021/12/07 03:41:35;;;;;;;9.93;2.05;;;24.80;99.90;;;;;;5065685;28;20650;-57
2021/12/07 03:44:03;;;;;;;4.22;2.00;;;25.10;99.90;;;;;;5064457;28;20666;-57
2021/12/07 03:46:31;;;;;;;5.78;1.63;;;25.40;99.90;;;;;;5050273;28;20185;-58
2021/12/07 03:48:58;;;;;;;4.80;1.90;;;25.40;99.90;;;;;;5056626;28;20569;-57
2021/12/07 03:51:25;;;;;;;4.35;1.35;;;25.60;99.90;;;;;;5057553;28;20183;-56
2021/12/07 03:53:52;;;;;;;4.25;1.42;;;25.60;99.90;;;;;;5045617;28;20632;-57
2021/12/07 03:56:19;;;;;;;8.75;2.22;;;25.60;99.90;;;;;;5063451;28;20190;-57
2021/12/07 03:58:46;;;;;;;5.40;1.77;;;25.60;99.90;;;;;;5065143;28;20174;-57
2021/12/07 04:01:14;;;;;;;4.97;1.30;;;25.70;99.90;;;;;;5064130;28;20768;-56
2021/12/07 04:03:42;;;;;;;8.40;1.15;;;25.80;99.90;;;;;;5064388;28;20247;-56
2021/12/07 04:06:09;;;;;;;5.72;1.75;;;25.80;99.90;;;;;;5056020;28;20206;-58
2021/12/07 04:08:39;;;;;;;7.40;1.73;;;25.90;99.90;;;;;;5053686;28;20270;-56
2021/12/07 04:11:06;;;;;;;9.73;1.60;;;26.00;99.90;;;;;;5064021;28;20182;-58
2021/12/07 04:13:33;;;;;;;7.72;1.90;;;25.90;99.90;;;;;;5059640;28;20224;-59
2021/12/07 04:16:01;;;;;;;5.22;1.73;;;26.00;99.90;;;;;;5060694;28;20189;-59
2021/12/07 04:18:28;;;;;;;5.32;1.85;;;25.90;99.90;;;;;;5064033;28;20174;-56
2021/12/07 04:20:56;;;;;;;9.07;1.70;;;25.80;99.90;;;;;;5065337;28;20689;-58
2021/12/07 04:23:23;;;;;;;4.63;1.63;;;25.50;99.90;;;;;;5069017;28;20257;-58
2021/12/07 04:25:51;;;;;;;4.85;1.50;;;25.20;99.90;;;;;;5064800;28;20189;-57
2021/12/07 04:28:18;;;;;;;5.78;1.60;;;24.90;99.90;;;;;;5066534;28;20582;-58
2021/12/07 04:30:45;;;;;;;6.13;1.80;;;24.60;99.90;;;;;;5068646;28;20185;-56
2021/12/07 04:33:14;;;;;;;7.15;1.98;;;24.40;99.90;;;;;;5069016;28;20535;-58
2021/12/07 04:35:45;;;;;;;7.50;1.83;;;24.30;99.90;;;;;;5055443;28;20208;-58
2021/12/07 04:38:12;;;;;;;5.40;1.70;;;24.30;99.90;;;;;;5054225;28;20223;-57
2021/12/07 04:40:40;;;;;;;3.67;1.42;;;24.10;99.90;;;;;;5068184;28;20267;-57
2021/12/07 04:43:07;;;;;;;5.80;1.67;;;24.00;99.90;;;;;;5067366;28;20215;-58
2021/12/07 04:45:50;;;;;;;4.90;1.65;;;23.80;99.90;;;;;;5066873;28;20190;-58
2021/12/07 04:59:12;;;;;;;19.38;3.47;;;22.70;99.90;;;;;;5068640;28;20197;-58
2021/12/07 05:01:39;;;;;;;23.23;3.97;;;22.30;99.90;;;;;;5066603;28;20205;-57
2021/12/07 05:04:15;;;;;;;40.85;5.80;;;22.10;99.90;;;;;;5067091;28;20170;-56
2021/12/07 05:06:48;;;;;;;31.20;5.80;;;21.70;99.90;;;;;;5066854;28;20181;-56
2021/12/07 05:09:32;;;;;;;31.77;6.22;;;21.60;99.90;;;;;;5063109;28;20257;-56
